createdAt,value
2022-12-27T00:02:02.465Z,5.70
2022-12-27T00:04:30.053Z,3.53
2022-12-27T00:06:57.612Z,2.27
2022-12-27T00:09:24.997Z,2.50
2022-12-27T00:11:58.031Z,1.87
2022-12-27T00:14:27.163Z,2.07
2022-12-27T00:16:54.559Z,4.93
2022-12-27T00:19:21.781Z,4.83
2022-12-27T00:21:49.053Z,3.53
2022-12-27T00:24:16.378Z,2.13
2022-12-27T00:26:43.949Z,2.57
2022-12-27T00:29:11.392Z,5.33
2022-12-27T00:31:39.069Z,2.17
2022-12-27T00:34:07.848Z,4.00
2022-12-27T00:36:35.732Z,3.90
2022-12-27T00:39:03.234Z,1.77
2022-12-27T00:41:31.275Z,2.27
2022-12-27T00:43:58.469Z,2.33
2022-12-27T00:46:25.713Z,3.03
2022-12-27T00:48:53.378Z,4.30
2022-12-27T00:51:22.593Z,1.90
2022-12-27T00:53:50.295Z,1.90
2022-12-27T00:56:19.772Z,2.67
2022-12-27T00:58:47.273Z,2.23
2022-12-27T01:01:21.341Z,2.70
2022-12-27T01:03:48.703Z,2.43
2022-12-27T01:06:17.500Z,2.00
2022-12-27T01:08:45.295Z,2.53
2022-12-27T01:11:13.269Z,2.17
2022-12-27T01:13:40.839Z,2.00
2022-12-27T01:16:11.432Z,4.17
2022-12-27T01:18:39.154Z,1.93
2022-12-27T01:21:10.364Z,2.20
2022-12-27T01:23:37.600Z,1.80
2022-12-27T01:26:06.444Z,2.70
2022-12-27T01:28:33.683Z,2.60
2022-12-27T01:31:05.376Z,4.23
2022-12-27T01:33:32.557Z,2.40
2022-12-27T01:36:07.763Z,2.07
2022-12-27T01:38:34.924Z,4.00
2022-12-27T01:41:22.832Z,3.10
2022-12-27T01:43:50.119Z,3.20
2022-12-27T01:46:17.504Z,4.67
2022-12-27T01:48:44.957Z,3.37
2022-12-27T01:51:12.695Z,4.17
2022-12-27T01:53:42.619Z,3.20
2022-12-27T01:56:15.244Z,2.20
2022-12-27T01:58:42.384Z,3.50
2022-12-27T02:01:18.363Z,4.10
2022-12-27T02:04:12.197Z,3.20
2022-12-27T02:06:40.258Z,4.40
2022-12-27T02:09:19.623Z,2.87
2022-12-27T02:11:51.378Z,2.10
2022-12-27T02:14:26.170Z,3.50
2022-12-27T02:16:56.040Z,3.67
2022-12-27T02:19:43.681Z,3.43
2022-12-27T02:22:29.522Z,3.77
2022-12-27T02:25:15.602Z,2.50
2022-12-27T02:27:47.152Z,3.30
2022-12-27T02:30:14.679Z,2.20
2022-12-27T02:32:46.095Z,2.17
2022-12-27T02:35:36.572Z,2.73
2022-12-27T02:38:12.870Z,2.40
2022-12-27T02:41:00.378Z,3.17
2022-12-27T02:43:46.301Z,2.33
2022-12-27T02:46:35.559Z,4.80
2022-12-27T02:49:21.578Z,2.50
2022-12-27T02:52:10.156Z,4.00
2022-12-27T02:54:43.572Z,3.40
2022-12-27T02:57:29.143Z,3.33
2022-12-27T03:00:23.920Z,3.20
2022-12-27T03:03:23.861Z,2.00
2022-12-27T03:06:13.963Z,2.00
2022-12-27T03:08:48.280Z,4.60
2022-12-27T03:11:34.220Z,2.83
2022-12-27T03:14:36.269Z,2.50
2022-12-27T03:17:08.224Z,2.43
2022-12-27T03:20:05.399Z,2.60
2022-12-27T03:22:52.505Z,2.73
2022-12-27T03:25:29.093Z,5.03
2022-12-27T03:28:21.587Z,5.00
2022-12-27T03:31:09.952Z,3.00
2022-12-27T03:33:38.025Z,4.07
2022-12-27T03:36:30.938Z,5.03
2022-12-27T03:39:00.962Z,3.37
2022-12-27T03:41:49.572Z,2.23
2022-12-27T03:44:26.289Z,4.10
2022-12-27T03:47:00.618Z,4.60
2022-12-27T03:49:42.482Z,2.37
2022-12-27T03:52:19.360Z,4.00
2022-12-27T03:54:47.565Z,4.87
2022-12-27T03:57:16.088Z,4.87
2022-12-27T03:59:43.492Z,3.93
2022-12-27T04:02:10.934Z,2.57
2022-12-27T04:04:38.216Z,3.77
2022-12-27T04:07:06.038Z,2.20
2022-12-27T04:09:52.254Z,4.30
2022-12-27T04:12:38.300Z,2.13
2022-12-27T04:15:24.472Z,3.30
2022-12-27T04:18:10.365Z,2.20
2022-12-27T04:20:56.512Z,2.10
2022-12-27T04:23:42.649Z,2.60
2022-12-27T04:26:29.225Z,3.83
2022-12-27T04:29:15.152Z,5.10
2022-12-27T04:32:00.855Z,2.27
2022-12-27T04:34:43.695Z,3.90
2022-12-27T04:37:12.430Z,2.00
2022-12-27T04:39:39.627Z,2.90
2022-12-27T04:42:25.461Z,3.20
2022-12-27T04:45:15.150Z,2.37
2022-12-27T04:48:01.363Z,2.13
2022-12-27T04:50:48.997Z,5.30
2022-12-27T04:53:36.900Z,2.00
2022-12-27T04:56:04.808Z,3.30
2022-12-27T04:58:32.014Z,2.17
2022-12-27T05:01:19.459Z,3.03
2022-12-27T05:03:47.928Z,3.47
2022-12-27T05:06:15.335Z,2.73
2022-12-27T05:09:01.653Z,3.23
2022-12-27T05:11:47.796Z,1.83
2022-12-27T05:14:15.751Z,1.97
2022-12-27T05:16:44.011Z,2.70
2022-12-27T05:19:12.260Z,2.40
2022-12-27T05:21:40.221Z,1.80
2022-12-27T05:24:26.332Z,2.47
2022-12-27T05:26:56.700Z,3.37
2022-12-27T05:29:23.973Z,5.87
2022-12-27T05:31:51.159Z,2.13
2022-12-27T05:34:18.428Z,3.63
2022-12-27T05:36:45.663Z,2.40
2022-12-27T05:39:12.905Z,2.67
2022-12-27T05:41:40.034Z,1.70
2022-12-27T05:44:07.828Z,2.07
2022-12-27T05:46:35.800Z,1.70
2022-12-27T05:49:03.249Z,3.47
2022-12-27T05:51:30.531Z,4.27
2022-12-27T05:53:57.697Z,7.77
2022-12-27T05:56:25.156Z,7.73
2022-12-27T05:58:55.385Z,6.30
2022-12-27T06:01:25.096Z,6.80
2022-12-27T06:03:52.307Z,4.10
2022-12-27T06:06:19.534Z,4.30
2022-12-27T06:08:46.752Z,2.70
2022-12-27T06:11:15.490Z,5.93
2022-12-27T06:13:43.594Z,18.60
2022-12-27T06:16:12.482Z,15.33
2022-12-27T06:18:40.849Z,14.17
2022-12-27T06:21:12.691Z,7.50
2022-12-27T06:23:41.082Z,8.73
2022-12-27T06:26:09.336Z,3.27
2022-12-27T06:28:36.741Z,5.30
2022-12-27T06:31:04.430Z,7.67
2022-12-27T06:33:31.777Z,5.03
2022-12-27T06:35:59.309Z,3.93
2022-12-27T06:38:26.509Z,5.90
2022-12-27T06:40:54.060Z,9.43
2022-12-27T06:43:21.359Z,8.37
2022-12-27T06:45:56.444Z,14.70
2022-12-27T06:48:23.775Z,8.57
2022-12-27T06:50:51.044Z,7.50
2022-12-27T06:53:18.323Z,11.27
2022-12-27T06:55:45.596Z,8.70
2022-12-27T06:58:13.625Z,9.50
2022-12-27T07:00:41.039Z,7.10
2022-12-27T07:03:08.527Z,5.37
2022-12-27T07:05:36.791Z,6.67
2022-12-27T07:08:04.263Z,5.07
2022-12-27T07:10:31.716Z,3.20
2022-12-27T07:12:59.178Z,5.23
2022-12-27T07:15:26.832Z,6.33
2022-12-27T07:17:54.022Z,4.00
2022-12-27T07:20:21.256Z,3.27
2022-12-27T07:22:48.642Z,4.83
2022-12-27T07:25:15.868Z,3.60
2022-12-27T07:27:43.041Z,5.30
2022-12-27T07:30:10.509Z,3.13
2022-12-27T07:32:37.824Z,3.77
2022-12-27T07:35:05.159Z,5.37
2022-12-27T07:37:32.624Z,5.03
2022-12-27T07:39:59.857Z,4.43
2022-12-27T07:42:27.165Z,3.87
2022-12-27T07:44:54.673Z,8.37
2022-12-27T07:47:21.942Z,6.67
2022-12-27T07:49:49.439Z,6.03
2022-12-27T07:52:16.606Z,7.40
2022-12-27T07:54:43.743Z,6.13
2022-12-27T07:57:10.937Z,6.07
2022-12-27T07:59:38.164Z,7.13
2022-12-27T08:02:05.893Z,6.07
2022-12-27T08:04:34.529Z,7.53
2022-12-27T08:07:05.270Z,27.93
2022-12-27T08:09:34.722Z,20.80
2022-12-27T08:12:01.916Z,16.40
2022-12-27T08:14:29.854Z,12.80
2022-12-27T08:17:05.721Z,11.70
2022-12-27T08:19:33.257Z,8.03
2022-12-27T08:22:00.386Z,7.97
2022-12-27T08:24:27.878Z,7.63
2022-12-27T08:26:55.066Z,8.10
2022-12-27T08:29:22.229Z,6.67
2022-12-27T08:31:49.401Z,3.87
2022-12-27T08:34:16.841Z,5.63
2022-12-27T08:36:59.286Z,6.50
2022-12-27T08:39:28.194Z,3.30
2022-12-27T08:41:55.333Z,2.10
2022-12-27T08:44:23.578Z,2.00
2022-12-27T08:46:51.024Z,2.70
2022-12-27T08:49:18.158Z,4.40
2022-12-27T08:51:45.405Z,6.67
2022-12-27T08:54:12.581Z,4.67
2022-12-27T08:56:39.875Z,4.53
2022-12-27T08:59:07.160Z,6.43
2022-12-27T09:01:34.659Z,11.10
2022-12-27T09:04:02.154Z,3.83
2022-12-27T09:06:29.409Z,6.67
2022-12-27T09:08:57.229Z,5.20
2022-12-27T09:11:26.350Z,5.20
2022-12-27T09:13:53.879Z,5.03
2022-12-27T09:16:22.639Z,3.27
2022-12-27T09:18:50.927Z,5.67
2022-12-27T09:21:19.015Z,6.60
2022-12-27T09:23:46.691Z,2.43
2022-12-27T09:26:19.243Z,2.30
2022-12-27T09:28:46.848Z,3.40
2022-12-27T09:31:14.822Z,4.17
2022-12-27T09:33:42.453Z,4.73
2022-12-27T09:36:14.171Z,2.07
2022-12-27T09:38:42.156Z,1.90
2022-12-27T09:41:19.970Z,3.13
2022-12-27T09:44:17.719Z,4.20
2022-12-27T09:46:49.659Z,4.17
2022-12-27T09:49:27.085Z,3.83
2022-12-27T09:51:58.375Z,2.17
2022-12-27T09:54:27.530Z,2.53
2022-12-27T09:57:18.989Z,2.03
2022-12-27T09:59:45.651Z,2.20
2022-12-27T10:02:21.220Z,3.73
2022-12-27T10:07:54.381Z,6.60
2022-12-27T10:10:34.941Z,2.60
2022-12-27T10:13:20.715Z,2.00
2022-12-27T10:16:00.933Z,13.63
2022-12-27T10:18:37.432Z,2.40
2022-12-27T10:21:22.363Z,2.40
2022-12-27T10:24:02.414Z,2.00
2022-12-27T10:26:29.669Z,1.33
2022-12-27T10:29:03.137Z,3.30
2022-12-27T10:31:31.430Z,2.03
2022-12-27T10:33:58.708Z,1.60
2022-12-27T10:36:27.356Z,2.07
2022-12-27T10:38:55.152Z,1.77
2022-12-27T10:41:36.321Z,1.07
2022-12-27T10:44:03.742Z,2.63
2022-12-27T10:46:33.658Z,10.77
2022-12-27T10:49:21.254Z,2.53
2022-12-27T10:51:49.857Z,3.93
2022-12-27T10:54:19.835Z,53.17
2022-12-27T10:56:47.581Z,3.00
2022-12-27T10:59:17.141Z,2.00
2022-12-27T11:01:45.991Z,26.33
2022-12-27T11:04:20.101Z,15.37
2022-12-27T11:06:53.257Z,8.53
2022-12-27T11:09:30.971Z,4.10
2022-12-27T11:12:16.510Z,3.80
2022-12-27T11:15:00.982Z,1.50
2022-12-27T11:17:37.704Z,8.13
2022-12-27T11:20:25.122Z,1.00
2022-12-27T11:23:03.379Z,2.83
2022-12-27T11:25:31.954Z,1.20
2022-12-27T11:28:04.615Z,1.30
2022-12-27T11:30:56.572Z,1.10
2022-12-27T11:33:28.049Z,2.30
2022-12-27T11:35:56.600Z,1.03
2022-12-27T11:38:25.378Z,1.03
2022-12-27T11:41:01.714Z,1.00
2022-12-27T11:43:31.659Z,1.43
2022-12-27T11:45:59.563Z,1.10
2022-12-27T11:48:30.457Z,1.30
2022-12-27T11:50:58.483Z,1.40
2022-12-27T11:53:44.523Z,7.50
2022-12-27T11:56:29.344Z,1.53
2022-12-27T11:59:05.072Z,1.60
2022-12-27T12:01:51.006Z,1.67
2022-12-27T12:04:32.795Z,3.23
2022-12-27T12:07:00.203Z,4.13
2022-12-27T12:09:40.388Z,6.57
2022-12-27T12:12:26.371Z,1.63
2022-12-27T12:15:23.243Z,2.83
2022-12-27T12:17:56.404Z,0.90
2022-12-27T12:20:30.452Z,1.37
2022-12-27T12:23:27.128Z,1.80
2022-12-27T12:26:06.928Z,1.80
2022-12-27T12:31:21.636Z,2.27
2022-12-27T12:34:03.591Z,0.80
2022-12-27T12:36:31.117Z,2.10
2022-12-27T12:39:01.469Z,2.50
2022-12-27T12:41:48.192Z,0.90
2022-12-27T12:44:31.742Z,0.70
2022-12-27T12:47:12.425Z,1.00
2022-12-27T12:49:42.522Z,1.70
2022-12-27T12:52:21.224Z,1.10
2022-12-27T12:54:57.770Z,1.10
2022-12-27T12:57:33.233Z,1.13
2022-12-27T13:00:12.603Z,2.20
2022-12-27T13:02:39.944Z,0.90
2022-12-27T13:05:07.221Z,1.10
2022-12-27T13:07:39.346Z,1.00
2022-12-27T13:10:25.870Z,2.93
2022-12-27T13:12:55.832Z,0.90
2022-12-27T13:15:41.577Z,2.87
2022-12-27T13:18:19.116Z,1.40
2022-12-27T13:20:54.225Z,2.10
2022-12-27T13:23:21.432Z,1.30
2022-12-27T13:25:52.082Z,1.00
2022-12-27T13:28:22.020Z,2.10
2022-12-27T13:31:01.087Z,2.13
2022-12-27T13:33:31.382Z,2.40
2022-12-27T13:36:05.038Z,0.93
2022-12-27T13:38:55.012Z,2.60
2022-12-27T13:41:30.712Z,2.63
2022-12-27T13:44:16.115Z,2.73
2022-12-27T13:46:43.506Z,1.43
2022-12-27T13:49:30.339Z,1.43
2022-12-27T13:52:03.273Z,1.43
2022-12-27T13:54:33.672Z,3.73
2022-12-27T13:57:03.559Z,7.20
2022-12-27T13:59:45.406Z,1.00
2022-12-27T14:02:30.534Z,2.37
2022-12-27T14:04:59.631Z,1.13
2022-12-27T14:07:46.105Z,1.17
2022-12-27T14:10:32.223Z,2.83
2022-12-27T14:12:59.994Z,0.97
2022-12-27T14:15:27.196Z,1.17
2022-12-27T14:17:57.580Z,1.37
2022-12-27T14:20:28.171Z,1.50
2022-12-27T14:23:10.722Z,1.33
2022-12-27T14:26:10.450Z,1.60
2022-12-27T14:28:59.644Z,1.20
2022-12-27T14:31:33.379Z,2.13
2022-12-27T14:34:07.782Z,1.40
2022-12-27T14:36:38.115Z,1.23
2022-12-27T14:39:19.006Z,1.70
2022-12-27T14:41:49.198Z,3.07
2022-12-27T14:44:35.061Z,1.10
2022-12-27T14:47:20.943Z,1.67
2022-12-27T14:49:48.298Z,3.33
2022-12-27T14:52:28.529Z,1.43
2022-12-27T14:55:22.441Z,0.80
2022-12-27T14:58:03.943Z,3.13
2022-12-27T15:00:45.288Z,1.23
2022-12-27T15:03:39.484Z,1.17
2022-12-27T15:06:21.054Z,4.63
2022-12-27T15:09:07.592Z,1.97
2022-12-27T15:11:38.006Z,1.83
2022-12-27T15:14:21.431Z,1.90
2022-12-27T15:16:49.044Z,2.30
2022-12-27T15:19:25.982Z,3.90
2022-12-27T15:21:58.342Z,1.73
2022-12-27T15:24:30.170Z,1.70
2022-12-27T15:27:02.276Z,1.90
2022-12-27T15:29:49.287Z,2.50
2022-12-27T15:32:32.958Z,4.73
2022-12-27T15:35:17.718Z,6.60
2022-12-27T15:37:48.404Z,8.93
2022-12-27T15:40:21.823Z,10.00
2022-12-27T15:43:02.102Z,8.73
2022-12-27T15:45:38.402Z,10.83
2022-12-27T15:48:08.442Z,28.23
2022-12-27T15:50:44.695Z,30.20
2022-12-27T15:53:32.161Z,28.10
2022-12-27T15:56:23.900Z,12.37
2022-12-27T15:59:09.823Z,3.80
2022-12-27T16:01:39.169Z,9.60
2022-12-27T16:04:32.954Z,10.40
2022-12-27T16:07:04.360Z,8.70
2022-12-27T16:09:32.776Z,6.07
2022-12-27T16:12:03.186Z,7.50
2022-12-27T16:14:31.846Z,12.00
2022-12-27T16:17:14.591Z,7.73
2022-12-27T16:19:47.692Z,8.57
2022-12-27T16:22:22.983Z,15.40
2022-12-27T16:24:50.224Z,14.97
2022-12-27T16:27:28.433Z,12.40
2022-12-27T16:29:57.066Z,22.50
2022-12-27T16:32:25.874Z,9.23
2022-12-27T16:34:55.567Z,10.17
2022-12-27T16:37:27.528Z,14.30
2022-12-27T16:40:12.013Z,15.07
2022-12-27T16:42:48.273Z,14.27
2022-12-27T16:45:35.675Z,24.57
2022-12-27T16:48:02.865Z,20.97
2022-12-27T16:50:42.179Z,21.90
2022-12-27T16:53:29.900Z,21.93
2022-12-27T16:56:06.187Z,21.87
2022-12-27T16:58:35.195Z,23.53
2022-12-27T17:01:03.440Z,20.20
2022-12-27T17:03:30.652Z,24.00
2022-12-27T17:06:30.768Z,25.73
2022-12-27T17:08:48.076Z,27.57
2022-12-27T17:11:25.949Z,24.20
2022-12-27T17:13:57.645Z,8.00
2022-12-27T17:16:27.677Z,3.23
2022-12-27T17:19:01.142Z,4.10
2022-12-27T17:21:31.795Z,4.30
2022-12-27T17:24:01.039Z,6.60
2022-12-27T17:26:36.688Z,6.40
2022-12-27T17:29:04.460Z,6.17
2022-12-27T17:31:39.963Z,11.27
2022-12-27T17:34:10.351Z,8.63
2022-12-27T17:36:47.787Z,5.53
2022-12-27T17:39:15.088Z,4.93
2022-12-27T17:42:13.315Z,8.27
2022-12-27T17:45:19.171Z,6.87
2022-12-27T17:47:49.400Z,5.43
2022-12-27T17:50:19.406Z,5.60
2022-12-27T17:53:35.092Z,8.53
2022-12-27T17:56:29.936Z,7.10
2022-12-27T17:59:17.573Z,9.60
2022-12-27T18:01:49.374Z,10.13
2022-12-27T18:04:22.939Z,8.33
2022-12-27T18:06:50.400Z,9.67
2022-12-27T18:09:43.877Z,14.90
2022-12-27T18:12:15.861Z,11.33
2022-12-27T18:14:43.832Z,12.43
2022-12-27T18:17:28.437Z,14.70
2022-12-27T18:19:57.828Z,15.30
2022-12-27T18:22:25.083Z,14.73
2022-12-27T18:24:52.240Z,14.97
2022-12-27T18:27:21.205Z,12.80
2022-12-27T18:29:48.722Z,12.30
2022-12-27T18:32:17.615Z,17.13
2022-12-27T18:34:54.780Z,14.20
2022-12-27T18:37:24.048Z,19.13
2022-12-27T18:39:54.042Z,14.97
2022-12-27T18:42:35.633Z,15.83
2022-12-27T18:45:07.284Z,16.80
2022-12-27T18:47:39.116Z,18.53
2022-12-27T18:50:07.117Z,14.63
2022-12-27T18:52:38.401Z,18.90
2022-12-27T18:55:07.414Z,15.37
2022-12-27T18:57:36.977Z,12.93
2022-12-27T19:00:13.552Z,17.87
2022-12-27T19:02:41.534Z,15.17
2022-12-27T19:05:16.209Z,12.53
2022-12-27T19:07:43.637Z,15.17
2022-12-27T19:10:17.216Z,20.40
2022-12-27T19:12:44.692Z,16.57
2022-12-27T19:15:34.616Z,17.80
2022-12-27T19:18:04.588Z,20.40
2022-12-27T19:20:33.802Z,17.43
2022-12-27T19:23:08.911Z,16.43
2022-12-27T19:25:39.504Z,19.47
2022-12-27T19:28:07.156Z,18.27
2022-12-27T19:30:45.000Z,19.17
2022-12-27T19:33:14.945Z,17.10
2022-12-27T19:35:42.872Z,13.63
2022-12-27T19:38:18.857Z,15.27
2022-12-27T19:40:47.292Z,17.30
2022-12-27T19:43:15.484Z,17.60
2022-12-27T19:45:42.622Z,16.93
2022-12-27T19:48:10.636Z,17.97
2022-12-27T19:50:55.950Z,17.57
2022-12-27T19:53:24.731Z,15.17
2022-12-27T19:55:52.690Z,13.77
2022-12-27T19:58:22.352Z,19.63
2022-12-27T20:00:49.720Z,20.00
2022-12-27T20:03:17.233Z,20.00
2022-12-27T20:06:12.778Z,15.63
2022-12-27T20:08:37.344Z,17.07
2022-12-27T20:11:05.801Z,19.43
2022-12-27T20:13:33.051Z,17.03
2022-12-27T20:16:00.928Z,18.07
2022-12-27T20:18:28.204Z,16.93
2022-12-27T20:20:55.635Z,17.40
2022-12-27T20:23:23.112Z,15.90
2022-12-27T20:25:50.549Z,19.60
2022-12-27T20:28:20.249Z,17.47
2022-12-27T20:30:47.683Z,19.87
2022-12-27T20:33:15.893Z,19.07
2022-12-27T20:35:43.266Z,19.53
2022-12-27T20:38:10.659Z,17.50
2022-12-27T20:40:38.884Z,14.37
2022-12-27T20:43:06.091Z,15.30
2022-12-27T20:45:34.043Z,14.37
2022-12-27T20:48:01.267Z,16.17
2022-12-27T20:50:29.091Z,14.77
2022-12-27T20:52:56.264Z,17.83
2022-12-27T20:55:23.614Z,16.93
2022-12-27T20:57:50.953Z,22.13
2022-12-27T21:00:18.231Z,20.37
2022-12-27T21:02:46.062Z,14.57
2022-12-27T21:05:13.847Z,15.90
2022-12-27T21:07:41.168Z,15.93
2022-12-27T21:10:10.147Z,15.13
2022-12-27T21:12:38.084Z,16.93
2022-12-27T21:15:08.317Z,18.23
2022-12-27T21:17:35.711Z,20.63
2022-12-27T21:20:03.086Z,14.53
2022-12-27T21:22:30.453Z,15.23
2022-12-27T21:24:57.777Z,21.97
2022-12-27T21:27:24.938Z,22.53
2022-12-27T21:29:52.197Z,18.53
2022-12-27T21:32:19.455Z,28.73
2022-12-27T21:34:46.652Z,23.57
2022-12-27T21:37:13.829Z,19.80
2022-12-27T21:39:41.235Z,17.33
2022-12-27T21:42:08.673Z,19.20
2022-12-27T21:44:36.966Z,17.57
2022-12-27T21:47:04.278Z,16.90
2022-12-27T21:49:33.502Z,23.77
2022-12-27T21:52:00.813Z,16.67
2022-12-27T21:54:27.972Z,18.33
2022-12-27T21:56:55.251Z,18.73
2022-12-27T21:59:22.486Z,17.00
2022-12-27T22:01:51.341Z,16.57
2022-12-27T22:04:21.066Z,16.57
2022-12-27T22:06:48.499Z,16.27
2022-12-27T22:09:15.806Z,18.93
2022-12-27T22:11:43.149Z,24.93
2022-12-27T22:14:11.163Z,23.43
2022-12-27T22:16:39.274Z,18.33
2022-12-27T22:19:07.399Z,18.20
2022-12-27T22:21:35.028Z,14.63
2022-12-27T22:24:02.905Z,14.73
2022-12-27T22:26:31.190Z,13.30
2022-12-27T22:28:58.618Z,11.63
2022-12-27T22:31:35.227Z,14.47
2022-12-27T22:34:03.506Z,14.07
2022-12-27T22:36:31.249Z,11.37
2022-12-27T22:38:59.254Z,13.83
2022-12-27T22:41:30.680Z,10.43
2022-12-27T22:44:01.932Z,8.53
2022-12-27T22:46:51.059Z,11.30
2022-12-27T22:49:18.107Z,11.87
2022-12-27T22:51:45.410Z,10.23
2022-12-27T22:54:12.580Z,11.13
2022-12-27T22:56:40.877Z,9.63
2022-12-27T22:59:09.069Z,7.67
2022-12-27T23:01:36.583Z,15.83
2022-12-27T23:04:05.054Z,13.47
2022-12-27T23:06:33.316Z,9.60
2022-12-27T23:09:00.691Z,8.60
2022-12-27T23:11:32.777Z,8.17
2022-12-27T23:14:01.634Z,7.57
2022-12-27T23:16:29.095Z,10.37
2022-12-27T23:18:56.499Z,11.03
2022-12-27T23:21:24.844Z,11.57
2022-12-27T23:23:52.428Z,7.47
2022-12-27T23:26:21.857Z,11.30
2022-12-27T23:28:50.451Z,9.67
2022-12-27T23:31:18.856Z,6.93
2022-12-27T23:33:46.157Z,6.13
2022-12-27T23:36:14.088Z,6.27
2022-12-27T23:38:41.966Z,5.67
2022-12-27T23:41:11.301Z,5.50
2022-12-27T23:43:57.209Z,5.50
2022-12-27T23:46:27.457Z,9.00
2022-12-27T23:48:55.171Z,5.83
2022-12-27T23:51:22.882Z,7.47
2022-12-27T23:53:50.616Z,4.73
2022-12-27T23:56:18.905Z,4.87
2022-12-27T23:58:46.780Z,3.80
